createdAt,value
2018-08-25T00:00:26.337Z,97.50
2018-08-25T00:02:54.873Z,97.80
2018-08-25T00:05:23.515Z,97.90
2018-08-25T00:07:52.103Z,98.30
2018-08-25T00:10:20.696Z,98.50
2018-08-25T00:12:49.276Z,98.60
2018-08-25T00:15:17.855Z,97.90
2018-08-25T00:17:46.512Z,97.80
2018-08-25T00:20:15.096Z,97.00
2018-08-25T00:22:43.647Z,97.00
2018-08-25T00:25:12.208Z,96.80
2018-08-25T00:27:40.740Z,97.10
2018-08-25T00:31:12.019Z,97.60
2018-08-25T00:33:40.562Z,97.50
2018-08-25T00:36:09.137Z,97.30
2018-08-25T00:38:37.707Z,97.30
2018-08-25T00:41:06.313Z,97.20
2018-08-25T00:43:34.918Z,96.90
2018-08-25T00:46:03.497Z,96.90
2018-08-25T00:48:32.075Z,97.60
2018-08-25T00:51:00.623Z,96.80
2018-08-25T00:53:29.233Z,96.40
2018-08-25T00:55:57.794Z,96.90
2018-08-25T00:58:26.353Z,96.50
2018-08-25T01:00:54.985Z,95.60
2018-08-25T01:03:23.548Z,96.20
2018-08-25T01:05:52.103Z,96.30
2018-08-25T01:08:20.657Z,96.70
2018-08-25T01:10:49.237Z,97.60
2018-08-25T01:13:17.786Z,97.70
2018-08-25T01:15:46.355Z,97.30
2018-08-25T01:18:14.908Z,97.10
2018-08-25T01:20:43.513Z,97.00
2018-08-25T01:23:12.061Z,96.90
2018-08-25T01:25:40.615Z,97.10
2018-08-25T01:28:09.239Z,97.50
2018-08-25T01:30:37.826Z,97.30
2018-08-25T01:33:06.416Z,97.00
2018-08-25T01:35:35.036Z,97.50
2018-08-25T01:38:03.611Z,97.60
2018-08-25T01:40:32.249Z,97.80
2018-08-25T01:43:00.825Z,97.40
2018-08-25T01:45:29.429Z,97.30
2018-08-25T01:47:57.959Z,96.60
2018-08-25T01:50:26.547Z,97.60
2018-08-25T01:52:55.135Z,97.50
2018-08-25T01:55:23.752Z,97.00
2018-08-25T01:57:52.308Z,97.30
2018-08-25T02:00:20.855Z,97.40
2018-08-25T02:02:49.617Z,97.30
2018-08-25T02:05:18.099Z,97.80
2018-08-25T02:07:46.656Z,97.70
2018-08-25T02:10:15.267Z,97.70
2018-08-25T02:12:43.789Z,97.40
2018-08-25T02:15:12.344Z,97.30
2018-08-25T02:17:40.922Z,97.60
2018-08-25T02:20:09.487Z,98.10
2018-08-25T02:22:38.017Z,97.60
2018-08-25T02:25:06.588Z,97.60
2018-08-25T02:27:35.142Z,97.90
2018-08-25T02:30:03.787Z,97.60
2018-08-25T02:32:32.433Z,97.30
2018-08-25T02:35:01.011Z,97.10
2018-08-25T02:37:29.580Z,96.90
2018-08-25T02:39:58.144Z,96.90
2018-08-25T02:42:26.732Z,97.60
2018-08-25T02:44:55.255Z,97.00
2018-08-25T02:47:23.847Z,97.60
2018-08-25T02:49:52.396Z,97.10
2018-08-25T02:52:20.993Z,96.90
2018-08-25T02:54:49.561Z,96.90
2018-08-25T02:57:18.151Z,96.90
2018-08-25T02:59:46.710Z,96.90
2018-08-25T03:02:15.235Z,97.50
2018-08-25T03:04:43.804Z,97.20
2018-08-25T03:07:12.730Z,97.50
2018-08-25T03:09:41.255Z,97.30
2018-08-25T03:12:09.812Z,97.30
2018-08-25T03:14:38.374Z,97.00
2018-08-25T03:17:06.965Z,97.50
2018-08-25T03:19:35.576Z,97.70
2018-08-25T03:22:04.135Z,97.30
2018-08-25T03:24:32.741Z,97.30
2018-08-25T03:27:01.383Z,97.30
2018-08-25T03:29:29.908Z,97.80
2018-08-25T03:31:58.420Z,97.60
2018-08-25T03:34:26.996Z,98.10
2018-08-25T03:36:55.521Z,98.40
2018-08-25T03:39:24.094Z,99.10
2018-08-25T03:41:52.677Z,98.60
2018-08-25T03:44:21.232Z,98.40
2018-08-25T03:46:49.794Z,98.10
2018-08-25T03:49:18.351Z,98.00
2018-08-25T03:51:46.869Z,97.90
2018-08-25T03:54:15.430Z,98.00
2018-08-25T03:56:43.971Z,97.90
2018-08-25T03:59:12.618Z,97.90
2018-08-25T04:01:41.267Z,98.40
2018-08-25T04:04:09.745Z,98.10
2018-08-25T04:06:38.319Z,98.00
2018-08-25T04:09:10.165Z,98.40
2018-08-25T04:11:38.740Z,98.30
2018-08-25T04:14:08.186Z,98.50
2018-08-25T04:16:36.915Z,98.60
2018-08-25T04:19:05.845Z,98.70
2018-08-25T04:21:34.385Z,98.80
2018-08-25T04:24:02.991Z,99.00
2018-08-25T04:26:31.592Z,99.00
2018-08-25T04:29:00.148Z,98.80
2018-08-25T04:31:28.672Z,98.80
2018-08-25T04:33:57.184Z,99.00
2018-08-25T04:36:25.724Z,99.10
2018-08-25T04:38:54.268Z,99.10
2018-08-25T04:41:23.093Z,99.10
2018-08-25T04:43:51.639Z,99.30
2018-08-25T04:46:20.219Z,99.10
2018-08-25T04:48:48.761Z,99.10
2018-08-25T04:51:17.361Z,99.30
2018-08-25T04:53:46.353Z,99.40
2018-08-25T04:56:14.913Z,99.00
2018-08-25T04:58:43.522Z,98.80
2018-08-25T05:01:12.083Z,99.00
2018-08-25T05:03:40.637Z,99.00
2018-08-25T05:06:09.181Z,99.40
2018-08-25T05:08:37.756Z,99.80
2018-08-25T05:11:06.312Z,99.80
2018-08-25T05:13:34.838Z,99.50
2018-08-25T05:16:03.367Z,99.30
2018-08-25T05:18:31.905Z,99.10
2018-08-25T05:21:00.443Z,99.50
2018-08-25T05:23:28.986Z,99.30
2018-08-25T05:25:57.537Z,98.80
2018-08-25T05:28:26.069Z,99.20
2018-08-25T05:30:54.597Z,99.40
2018-08-25T05:33:23.156Z,99.10
2018-08-25T05:35:51.715Z,99.30
2018-08-25T05:38:20.280Z,99.70
2018-08-25T05:40:48.875Z,99.40
2018-08-25T05:43:17.424Z,99.60
2018-08-25T05:45:45.972Z,99.20
2018-08-25T05:48:14.523Z,99.60
2018-08-25T05:50:43.065Z,99.70
2018-08-25T05:53:11.600Z,99.20
2018-08-25T05:55:40.141Z,99.30
2018-08-25T05:58:08.667Z,99.30
2018-08-25T06:00:37.309Z,99.70
2018-08-25T06:03:05.929Z,99.70
2018-08-25T06:05:34.457Z,99.20
2018-08-25T06:08:03.080Z,98.50
2018-08-25T06:10:31.769Z,98.10
2018-08-25T06:13:00.344Z,97.00
2018-08-25T06:15:28.887Z,97.60
2018-08-25T06:17:57.470Z,96.80
2018-08-25T06:20:26.410Z,97.70
2018-08-25T06:22:55.018Z,97.10
2018-08-25T06:25:23.572Z,94.80
2018-08-25T06:27:52.699Z,94.50
2018-08-25T06:30:21.267Z,94.40
2018-08-25T06:32:49.859Z,94.30
2018-08-25T06:35:18.545Z,94.80
2018-08-25T06:37:47.102Z,94.70
2018-08-25T06:40:15.704Z,92.10
2018-08-25T06:42:44.263Z,90.80
2018-08-25T06:45:12.821Z,88.80
2018-08-25T06:47:41.381Z,88.70
2018-08-25T06:50:09.920Z,90.60
2018-08-25T06:52:38.474Z,91.20
2018-08-25T06:55:07.111Z,89.40
2018-08-25T06:57:35.728Z,89.40
2018-08-25T07:00:04.648Z,89.60
2018-08-25T07:02:33.444Z,89.80
2018-08-25T07:05:02.030Z,89.30
2018-08-25T07:07:31.641Z,90.40
2018-08-25T07:10:00.156Z,89.90
2018-08-25T07:12:28.728Z,90.90
2018-08-25T07:14:58.213Z,91.70
2018-08-25T07:17:26.861Z,89.80
2018-08-25T07:19:55.377Z,90.00
2018-08-25T07:22:24.065Z,90.40
2018-08-25T07:24:52.660Z,90.60
2018-08-25T07:27:21.219Z,90.90
2018-08-25T07:29:49.843Z,89.70
2018-08-25T07:32:18.455Z,89.80
2018-08-25T07:34:47.640Z,92.40
2018-08-25T07:37:16.195Z,91.10
2018-08-25T07:39:44.759Z,90.50
2018-08-25T07:42:13.357Z,90.30
2018-08-25T07:44:41.976Z,89.60
2018-08-25T07:47:10.538Z,89.40
2018-08-25T07:49:39.182Z,90.60
2018-08-25T07:52:07.675Z,86.40
2018-08-25T07:54:36.217Z,84.70
2018-08-25T07:57:04.901Z,86.50
2018-08-25T07:59:33.446Z,84.20
2018-08-25T08:02:02.037Z,80.60
2018-08-25T08:04:30.663Z,79.40
2018-08-25T08:06:59.400Z,77.50
2018-08-25T08:09:27.999Z,78.20
2018-08-25T08:11:56.817Z,79.50
2018-08-25T08:14:26.443Z,78.60
2018-08-25T08:17:01.661Z,79.70
2018-08-25T08:19:30.323Z,81.10
2018-08-25T08:21:58.872Z,81.30
2018-08-25T08:24:28.499Z,84.70
2018-08-25T08:26:57.191Z,82.20
2018-08-25T08:29:25.747Z,81.40
2018-08-25T08:31:54.407Z,81.90
2018-08-25T08:34:22.969Z,81.80
2018-08-25T08:36:52.487Z,82.80
2018-08-25T08:39:21.097Z,82.10
2018-08-25T08:41:49.777Z,81.20
2018-08-25T08:44:18.359Z,81.70
2018-08-25T08:46:46.907Z,82.30
2018-08-25T08:49:15.582Z,84.00
2018-08-25T08:51:44.201Z,83.30
2018-08-25T08:54:12.874Z,83.00
2018-08-25T08:56:41.437Z,84.00
2018-08-25T08:59:09.979Z,83.60
2018-08-25T09:01:38.565Z,85.20
2018-08-25T09:04:07.212Z,84.30
2018-08-25T09:06:35.878Z,84.80
2018-08-25T09:09:07.047Z,83.60
2018-08-25T09:11:35.702Z,83.70
2018-08-25T09:14:04.248Z,78.70
2018-08-25T09:16:33.547Z,80.80
2018-08-25T09:19:02.135Z,81.20
2018-08-25T09:21:30.689Z,79.50
2018-08-25T09:23:59.527Z,80.70
2018-08-25T09:26:28.169Z,78.90
2018-08-25T09:28:57.018Z,79.50
2018-08-25T09:31:25.554Z,79.90
2018-08-25T09:33:54.178Z,79.30
2018-08-25T09:36:22.779Z,80.20
2018-08-25T09:38:51.870Z,79.20
2018-08-25T09:41:20.742Z,80.60
2018-08-25T09:43:49.441Z,81.00
2018-08-25T09:46:18.023Z,81.50
2018-08-25T09:48:46.607Z,82.50
2018-08-25T09:51:15.152Z,81.50
2018-08-25T09:53:43.691Z,82.10
2018-08-25T09:56:12.283Z,81.60
2018-08-25T09:58:40.841Z,82.60
2018-08-25T10:01:14.602Z,85.50
2018-08-25T10:03:43.126Z,84.70
2018-08-25T10:06:11.706Z,87.00
2018-08-25T10:08:40.256Z,86.40
2018-08-25T10:11:08.800Z,87.00
2018-08-25T10:13:37.327Z,86.40
2018-08-25T10:16:05.922Z,86.50
2018-08-25T10:18:34.487Z,85.70
2018-08-25T10:21:03.043Z,86.50
2018-08-25T10:23:31.736Z,86.60
2018-08-25T10:26:00.290Z,88.50
2018-08-25T10:28:28.854Z,88.50
2018-08-25T10:30:57.416Z,89.20
2018-08-25T10:33:25.980Z,90.60
2018-08-25T10:35:54.535Z,91.00
2018-08-25T10:38:23.097Z,89.80
2018-08-25T10:40:51.746Z,90.30
2018-08-25T10:43:20.316Z,90.50
2018-08-25T10:45:48.919Z,92.10
2018-08-25T10:48:17.467Z,90.60
2018-08-25T10:50:46.004Z,90.50
2018-08-25T10:53:14.661Z,89.30
2018-08-25T10:55:43.219Z,89.10
2018-08-25T10:58:11.764Z,88.50
2018-08-25T11:00:40.565Z,88.90
2018-08-25T11:03:08.938Z,87.70
2018-08-25T11:05:37.500Z,86.70
2018-08-25T11:08:06.071Z,88.10
2018-08-25T11:10:34.657Z,87.10
2018-08-25T11:13:03.200Z,85.00
2018-08-25T11:15:31.745Z,84.80
2018-08-25T11:18:00.295Z,85.10
2018-08-25T11:20:28.813Z,84.20
2018-08-25T11:22:57.346Z,83.40
2018-08-25T11:25:25.897Z,81.60
2018-08-25T11:27:54.437Z,80.70
2018-08-25T11:30:23.034Z,81.50
2018-08-25T11:32:51.633Z,81.30
2018-08-25T11:35:20.181Z,82.00
2018-08-25T11:37:48.766Z,77.50
2018-08-25T11:40:17.365Z,77.20
2018-08-25T11:42:45.994Z,75.40
2018-08-25T11:45:14.539Z,74.50
2018-08-25T11:47:43.142Z,74.40
2018-08-25T11:50:11.695Z,75.50
2018-08-25T11:52:40.299Z,73.20
2018-08-25T11:55:08.901Z,77.10
2018-08-25T11:57:37.500Z,74.50
2018-08-25T12:00:07.521Z,74.40
2018-08-25T12:02:36.103Z,74.20
2018-08-25T12:05:04.809Z,74.00
2018-08-25T12:07:33.320Z,72.30
2018-08-25T12:10:01.907Z,73.10
2018-08-25T12:12:30.463Z,72.30
2018-08-25T12:14:59.047Z,72.70
2018-08-25T12:17:27.622Z,71.70
2018-08-25T12:19:56.205Z,70.00
2018-08-25T12:22:24.742Z,68.80
2018-08-25T12:24:53.439Z,72.60
2018-08-25T12:27:22.016Z,67.50
2018-08-25T12:29:50.606Z,67.60
2018-08-25T12:32:19.163Z,67.50
2018-08-25T12:34:47.756Z,68.20
2018-08-25T12:37:16.322Z,68.10
2018-08-25T12:39:45.519Z,65.40
2018-08-25T12:42:14.201Z,66.00
2018-08-25T12:44:42.769Z,65.00
2018-08-25T12:47:11.369Z,62.90
2018-08-25T12:49:39.961Z,61.70
2018-08-25T12:52:08.732Z,65.70
2018-08-25T12:54:37.275Z,62.80
2018-08-25T12:57:05.817Z,61.00
2018-08-25T12:59:34.445Z,60.80
2018-08-25T13:02:02.995Z,62.10
2018-08-25T13:04:31.531Z,62.50
2018-08-25T13:07:00.088Z,62.80
2018-08-25T13:09:28.665Z,63.30
2018-08-25T13:11:57.288Z,61.50
2018-08-25T13:14:25.829Z,62.40
2018-08-25T13:16:54.356Z,63.70
2018-08-25T13:19:22.934Z,63.80
2018-08-25T13:21:51.640Z,65.40
2018-08-25T13:24:20.182Z,66.50
2018-08-25T13:26:48.831Z,67.70
2018-08-25T13:29:17.383Z,67.50
2018-08-25T13:31:46.007Z,67.60
2018-08-25T13:34:14.552Z,65.10
2018-08-25T13:36:43.133Z,64.90
2018-08-25T13:39:12.536Z,64.30
2018-08-25T13:41:41.697Z,64.10
2018-08-25T13:44:11.888Z,63.50
2018-08-25T13:46:40.697Z,63.80
2018-08-25T13:49:09.290Z,64.50
2018-08-25T13:51:38.139Z,64.10
2018-08-25T13:54:07.103Z,62.20
2018-08-25T13:56:35.679Z,63.10
2018-08-25T13:59:04.209Z,64.20
2018-08-25T14:01:32.807Z,62.90
2018-08-25T14:04:01.393Z,61.70
2018-08-25T14:06:29.987Z,61.00
2018-08-25T14:08:58.920Z,60.50
2018-08-25T14:11:27.507Z,64.90
2018-08-25T14:13:56.061Z,61.40
2018-08-25T14:16:24.968Z,65.00
2018-08-25T14:18:53.499Z,66.30
2018-08-25T14:21:22.076Z,67.60
2018-08-25T14:23:50.712Z,68.30
2018-08-25T14:26:19.283Z,68.40
2018-08-25T14:28:47.911Z,70.50
2018-08-25T14:31:16.431Z,70.00
2018-08-25T14:33:45.011Z,71.50
2018-08-25T14:36:13.627Z,72.40
2018-08-25T14:38:42.130Z,72.20
2018-08-25T14:41:10.679Z,71.50
2018-08-25T14:43:39.253Z,71.20
2018-08-25T14:46:07.871Z,71.60
2018-08-25T14:48:36.431Z,69.10
2018-08-25T14:51:05.045Z,70.30
2018-08-25T14:53:33.589Z,69.30
2018-08-25T14:56:02.169Z,67.90
2018-08-25T14:58:30.748Z,68.20
2018-08-25T15:00:59.336Z,69.30
2018-08-25T15:03:27.888Z,67.80
2018-08-25T15:05:56.487Z,67.70
2018-08-25T15:08:25.037Z,66.40
2018-08-25T15:10:53.577Z,65.90
2018-08-25T15:13:22.242Z,65.30
2018-08-25T15:15:50.759Z,67.80
2018-08-25T15:18:19.308Z,67.20
2018-08-25T15:20:47.896Z,66.60
2018-08-25T15:23:16.500Z,66.00
2018-08-25T15:25:45.037Z,64.70
2018-08-25T15:28:13.572Z,65.30
2018-08-25T15:30:42.135Z,65.80
2018-08-25T15:33:10.735Z,63.90
2018-08-25T15:35:39.276Z,62.00
2018-08-25T15:38:07.813Z,62.60
2018-08-25T15:40:36.378Z,64.10
2018-08-25T15:43:04.993Z,64.30
2018-08-25T15:45:33.583Z,64.10
2018-08-25T15:48:02.183Z,63.80
2018-08-25T15:50:30.766Z,62.50
2018-08-25T15:52:59.321Z,62.80
2018-08-25T15:55:27.956Z,64.10
2018-08-25T15:57:57.772Z,63.40
2018-08-25T16:00:26.348Z,63.30
2018-08-25T16:02:55.453Z,63.30
2018-08-25T16:05:24.021Z,64.10
2018-08-25T16:07:52.885Z,66.10
2018-08-25T16:10:21.835Z,63.70
2018-08-25T16:12:50.805Z,63.50
2018-08-25T16:15:19.435Z,63.30
2018-08-25T16:17:47.995Z,64.30
2018-08-25T16:20:17.442Z,65.20
2018-08-25T16:22:46.029Z,64.90
2018-08-25T16:25:14.652Z,65.40
2018-08-25T16:27:43.210Z,66.50
2018-08-25T16:30:11.749Z,64.00
2018-08-25T16:32:40.329Z,66.10
2018-08-25T16:35:08.880Z,66.20
2018-08-25T16:37:37.452Z,65.80
2018-08-25T16:40:06.032Z,65.30
2018-08-25T16:42:34.616Z,68.50
2018-08-25T16:45:03.152Z,66.50
2018-08-25T16:47:31.714Z,67.50
2018-08-25T16:50:00.267Z,68.60
2018-08-25T16:52:28.935Z,68.30
2018-08-25T16:54:58.451Z,67.80
2018-08-25T16:57:27.018Z,67.50
2018-08-25T16:59:55.528Z,68.10
2018-08-25T17:02:24.075Z,66.60
2018-08-25T17:04:52.663Z,67.00
2018-08-25T17:07:21.311Z,67.50
2018-08-25T17:09:49.858Z,66.70
2018-08-25T17:12:18.404Z,68.00
2018-08-25T17:14:48.931Z,66.40
2018-08-25T17:17:17.448Z,67.50
2018-08-25T17:19:46.176Z,67.00
2018-08-25T17:22:14.713Z,68.90
2018-08-25T17:24:43.321Z,66.80
2018-08-25T17:27:11.846Z,67.40
2018-08-25T17:29:40.424Z,67.50
2018-08-25T17:32:08.953Z,68.60
2018-08-25T17:34:37.471Z,68.80
2018-08-25T17:37:07.701Z,69.60
2018-08-25T17:39:36.276Z,69.10
2018-08-25T17:42:05.050Z,68.20
2018-08-25T17:44:33.668Z,68.80
2018-08-25T17:47:02.247Z,68.80
2018-08-25T17:49:30.823Z,68.80
2018-08-25T17:51:59.370Z,69.40
2018-08-25T17:54:27.940Z,70.20
2018-08-25T17:56:56.641Z,69.70
2018-08-25T17:59:25.153Z,70.10
2018-08-25T18:01:53.801Z,70.50
2018-08-25T18:04:22.340Z,71.60
2018-08-25T18:06:50.932Z,70.90
2018-08-25T18:09:19.463Z,70.70
2018-08-25T18:11:48.069Z,71.40
2018-08-25T18:14:16.636Z,72.10
2018-08-25T18:16:45.206Z,72.20
2018-08-25T18:19:13.792Z,72.60
2018-08-25T18:21:42.327Z,73.00
2018-08-25T18:24:10.916Z,72.60
2018-08-25T18:26:39.476Z,73.20
2018-08-25T18:29:08.043Z,73.10
2018-08-25T18:31:36.668Z,73.70
2018-08-25T18:34:05.283Z,73.70
2018-08-25T18:36:33.867Z,73.70
2018-08-25T18:39:02.660Z,74.40
2018-08-25T18:41:31.238Z,73.80
2018-08-25T18:43:59.867Z,74.10
2018-08-25T18:46:28.459Z,74.80
2018-08-25T18:48:57.025Z,74.70
2018-08-25T18:51:25.633Z,74.40
2018-08-25T18:53:54.205Z,74.50
2018-08-25T18:56:22.854Z,74.80
2018-08-25T18:58:51.419Z,75.00
2018-08-25T19:01:20.032Z,74.30
2018-08-25T19:03:48.720Z,75.00
2018-08-25T19:06:17.312Z,75.90
2018-08-25T19:08:46.037Z,76.10
2018-08-25T19:11:14.625Z,75.30
2018-08-25T19:13:43.170Z,75.80
2018-08-25T19:16:11.760Z,75.20
2018-08-25T19:18:40.334Z,75.60
2018-08-25T19:21:08.930Z,75.90
2018-08-25T19:23:37.535Z,76.30
2018-08-25T19:26:06.188Z,76.20
2018-08-25T19:28:34.777Z,76.50
2018-08-25T19:31:03.397Z,76.30
2018-08-25T19:33:31.979Z,76.20
2018-08-25T19:36:00.599Z,76.30
2018-08-25T19:38:29.177Z,76.30
2018-08-25T19:40:58.038Z,76.60
2018-08-25T19:43:26.630Z,77.00
2018-08-25T19:45:55.340Z,77.70
2018-08-25T19:48:24.025Z,77.30
2018-08-25T19:50:52.590Z,77.30
2018-08-25T19:53:21.148Z,77.20
2018-08-25T19:55:49.867Z,77.80
2018-08-25T19:58:18.401Z,77.50
2018-08-25T20:00:47.041Z,78.00
2018-08-25T20:03:15.632Z,77.50
2018-08-25T20:05:44.329Z,77.60
2018-08-25T20:08:12.772Z,77.20
2018-08-25T20:10:41.328Z,77.40
2018-08-25T20:13:09.949Z,77.20
2018-08-25T20:15:38.582Z,77.90
2018-08-25T20:18:07.180Z,77.50
2018-08-25T20:20:35.823Z,77.50
2018-08-25T20:23:04.381Z,78.20
2018-08-25T20:25:32.948Z,78.00
2018-08-25T20:28:01.455Z,77.70
2018-08-25T20:30:30.096Z,77.60
2018-08-25T20:32:58.671Z,77.80
2018-08-25T20:35:27.199Z,78.00
2018-08-25T20:37:55.717Z,77.40
2018-08-25T20:40:24.280Z,76.60
2018-08-25T20:42:52.875Z,77.20
2018-08-25T20:45:21.444Z,77.40
2018-08-25T20:47:50.019Z,77.20
2018-08-25T20:50:18.571Z,77.30
2018-08-25T20:52:47.122Z,77.50
2018-08-25T20:55:15.666Z,77.40
2018-08-25T20:57:44.203Z,77.40
2018-08-25T21:00:12.808Z,77.30
2018-08-25T21:02:41.333Z,77.60
2018-08-25T21:05:09.951Z,77.50
2018-08-25T21:07:38.498Z,77.80
2018-08-25T21:10:08.300Z,77.80
2018-08-25T21:12:36.879Z,78.20
2018-08-25T21:15:05.590Z,78.60
2018-08-25T21:17:34.212Z,78.70
2018-08-25T21:20:02.771Z,78.00
2018-08-25T21:22:31.365Z,78.60
2018-08-25T21:24:59.931Z,77.70
2018-08-25T21:27:28.476Z,77.40
2018-08-25T21:29:57.022Z,77.60
2018-08-25T21:32:25.566Z,77.30
2018-08-25T21:34:54.230Z,78.00
2018-08-25T21:37:22.791Z,78.10
2018-08-25T21:39:51.311Z,78.60
2018-08-25T21:42:20.418Z,79.20
2018-08-25T21:44:49.001Z,78.40
2018-08-25T21:47:17.513Z,78.50
2018-08-25T21:49:46.072Z,78.00
2018-08-25T21:52:14.627Z,78.30
2018-08-25T21:54:43.161Z,78.30
2018-08-25T21:57:11.721Z,78.40
2018-08-25T21:59:40.254Z,79.00
2018-08-25T22:02:08.865Z,79.10
2018-08-25T22:04:37.407Z,78.30
2018-08-25T22:07:05.979Z,78.50
2018-08-25T22:09:34.492Z,78.80
2018-08-25T22:12:03.119Z,77.20
2018-08-25T22:14:31.647Z,77.60
2018-08-25T22:17:00.215Z,79.10
2018-08-25T22:19:28.741Z,78.60
2018-08-25T22:21:57.278Z,78.70
2018-08-25T22:24:25.850Z,78.50
2018-08-25T22:26:54.389Z,78.80
2018-08-25T22:29:22.923Z,79.10
2018-08-25T22:31:51.466Z,79.20
2018-08-25T22:34:19.984Z,79.60
2018-08-25T22:36:48.532Z,79.10
2018-08-25T22:39:17.069Z,79.60
2018-08-25T22:41:45.704Z,78.80
2018-08-25T22:44:14.260Z,79.20
2018-08-25T22:46:42.807Z,79.70
2018-08-25T22:49:13.160Z,79.90
2018-08-25T22:51:41.713Z,80.20
2018-08-25T22:54:10.295Z,79.80
2018-08-25T22:56:38.839Z,79.60
2018-08-25T22:59:07.415Z,79.60
2018-08-25T23:01:35.999Z,79.50
2018-08-25T23:04:04.564Z,79.60
2018-08-25T23:06:33.146Z,79.60
2018-08-25T23:09:01.730Z,79.50
2018-08-25T23:11:30.243Z,79.50
2018-08-25T23:13:58.861Z,79.30
2018-08-25T23:16:27.409Z,80.00
2018-08-25T23:18:55.942Z,80.20
2018-08-25T23:21:24.489Z,80.50
2018-08-25T23:23:53.023Z,80.80
2018-08-25T23:26:21.568Z,80.80
2018-08-25T23:28:50.090Z,80.80
2018-08-25T23:31:18.631Z,80.90
2018-08-25T23:33:47.147Z,81.00
2018-08-25T23:36:15.684Z,81.10
2018-08-25T23:38:44.199Z,81.30
2018-08-25T23:41:12.731Z,81.60
2018-08-25T23:43:41.317Z,81.90
2018-08-25T23:46:09.842Z,82.00
2018-08-25T23:48:38.395Z,82.20
2018-08-25T23:51:06.946Z,82.60
2018-08-25T23:53:35.462Z,82.60
2018-08-25T23:56:04.164Z,82.90
2018-08-25T23:58:32.721Z,82.60
